sensor_id;sensor_type;location;lat;lon;timestamp;P1;durP1;ratioP1;P2;durP2;ratioP2
35312;SDS011;21425;50.454;30.466;2023-12-22T00:01:41;19.33;;;8.18;;
35312;SDS011;21425;50.454;30.466;2023-12-22T00:04:07;18.70;;;8.02;;
35312;SDS011;21425;50.454;30.466;2023-12-22T00:06:33;18.65;;;8.57;;
35312;SDS011;21425;50.454;30.466;2023-12-22T00:08:59;16.52;;;8.30;;
35312;SDS011;21425;50.454;30.466;2023-12-22T00:11:25;17.45;;;8.95;;
35312;SDS011;21425;50.454;30.466;2023-12-22T00:13:51;17.55;;;8.23;;
35312;SDS011;21425;50.454;30.466;2023-12-22T00:16:17;23.10;;;8.73;;
35312;SDS011;21425;50.454;30.466;2023-12-22T00:18:42;21.42;;;9.00;;
35312;SDS011;21425;50.454;30.466;2023-12-22T00:21:11;24.23;;;9.52;;
35312;SDS011;21425;50.454;30.466;2023-12-22T00:23:37;19.67;;;7.85;;
35312;SDS011;21425;50.454;30.466;2023-12-22T00:26:03;23.27;;;9.45;;
35312;SDS011;21425;50.454;30.466;2023-12-22T00:28:30;20.85;;;9.65;;
35312;SDS011;21425;50.454;30.466;2023-12-22T00:30:59;17.52;;;8.32;;
35312;SDS011;21425;50.454;30.466;2023-12-22T00:33:25;20.63;;;8.38;;
35312;SDS011;21425;50.454;30.466;2023-12-22T00:35:50;17.77;;;8.43;;
35312;SDS011;21425;50.454;30.466;2023-12-22T00:38:16;17.77;;;7.93;;
35312;SDS011;21425;50.454;30.466;2023-12-22T00:40:42;20.80;;;8.68;;
35312;SDS011;21425;50.454;30.466;2023-12-22T00:43:08;19.55;;;9.05;;
35312;SDS011;21425;50.454;30.466;2023-12-22T00:45:34;17.65;;;8.05;;
35312;SDS011;21425;50.454;30.466;2023-12-22T00:47:59;14.30;;;8.15;;
35312;SDS011;21425;50.454;30.466;2023-12-22T00:50:25;20.85;;;8.57;;
35312;SDS011;21425;50.454;30.466;2023-12-22T00:52:50;17.25;;;7.47;;
35312;SDS011;21425;50.454;30.466;2023-12-22T00:55:16;20.98;;;8.52;;
35312;SDS011;21425;50.454;30.466;2023-12-22T00:57:42;15.85;;;7.88;;
35312;SDS011;21425;50.454;30.466;2023-12-22T01:00:08;20.40;;;8.15;;
35312;SDS011;21425;50.454;30.466;2023-12-22T01:02:37;14.88;;;7.13;;
35312;SDS011;21425;50.454;30.466;2023-12-22T01:05:03;16.25;;;7.68;;
35312;SDS011;21425;50.454;30.466;2023-12-22T01:07:29;18.77;;;8.55;;
35312;SDS011;21425;50.454;30.466;2023-12-22T01:09:54;16.45;;;7.65;;
35312;SDS011;21425;50.454;30.466;2023-12-22T01:12:20;17.52;;;8.57;;
35312;SDS011;21425;50.454;30.466;2023-12-22T01:14:45;22.40;;;7.43;;
35312;SDS011;21425;50.454;30.466;2023-12-22T01:17:11;15.68;;;8.00;;
35312;SDS011;21425;50.454;30.466;2023-12-22T01:19:37;20.48;;;8.30;;
35312;SDS011;21425;50.454;30.466;2023-12-22T01:22:03;21.42;;;7.15;;
35312;SDS011;21425;50.454;30.466;2023-12-22T01:24:29;20.33;;;8.13;;
35312;SDS011;21425;50.454;30.466;2023-12-22T01:26:54;16.77;;;7.90;;
35312;SDS011;21425;50.454;30.466;2023-12-22T01:29:20;22.85;;;8.40;;
35312;SDS011;21425;50.454;30.466;2023-12-22T01:31:46;16.30;;;7.50;;
35312;SDS011;21425;50.454;30.466;2023-12-22T01:34:12;16.48;;;8.90;;
35312;SDS011;21425;50.454;30.466;2023-12-22T01:36:38;18.55;;;8.10;;
35312;SDS011;21425;50.454;30.466;2023-12-22T01:39:03;20.38;;;8.07;;
35312;SDS011;21425;50.454;30.466;2023-12-22T01:41:29;19.73;;;7.65;;
35312;SDS011;21425;50.454;30.466;2023-12-22T01:43:55;20.88;;;9.20;;
35312;SDS011;21425;50.454;30.466;2023-12-22T01:46:21;23.52;;;9.32;;
35312;SDS011;21425;50.454;30.466;2023-12-22T01:48:47;20.08;;;9.50;;
35312;SDS011;21425;50.454;30.466;2023-12-22T01:51:13;18.40;;;8.38;;
35312;SDS011;21425;50.454;30.466;2023-12-22T01:53:39;19.33;;;8.15;;
35312;SDS011;21425;50.454;30.466;2023-12-22T01:56:05;20.23;;;8.40;;
35312;SDS011;21425;50.454;30.466;2023-12-22T01:58:32;23.05;;;9.02;;
35312;SDS011;21425;50.454;30.466;2023-12-22T02:00:59;27.38;;;10.43;;
35312;SDS011;21425;50.454;30.466;2023-12-22T02:03:26;25.08;;;9.15;;
35312;SDS011;21425;50.454;30.466;2023-12-22T02:05:53;23.40;;;9.02;;
35312;SDS011;21425;50.454;30.466;2023-12-22T02:08:19;20.45;;;8.18;;
35312;SDS011;21425;50.454;30.466;2023-12-22T02:10:47;24.65;;;9.25;;
35312;SDS011;21425;50.454;30.466;2023-12-22T02:13:13;17.77;;;8.35;;
35312;SDS011;21425;50.454;30.466;2023-12-22T02:15:39;21.38;;;9.40;;
35312;SDS011;21425;50.454;30.466;2023-12-22T02:18:12;14.57;;;7.78;;
35312;SDS011;21425;50.454;30.466;2023-12-22T02:20:43;16.95;;;7.60;;
35312;SDS011;21425;50.454;30.466;2023-12-22T02:23:10;17.73;;;8.18;;
35312;SDS011;21425;50.454;30.466;2023-12-22T02:25:35;17.20;;;8.57;;
35312;SDS011;21425;50.454;30.466;2023-12-22T02:28:03;18.67;;;8.30;;
35312;SDS011;21425;50.454;30.466;2023-12-22T02:30:34;22.35;;;8.98;;
35312;SDS011;21425;50.454;30.466;2023-12-22T02:33:23;17.40;;;8.95;;
35312;SDS011;21425;50.454;30.466;2023-12-22T02:35:53;17.13;;;7.65;;
35312;SDS011;21425;50.454;30.466;2023-12-22T02:38:27;15.77;;;7.88;;
35312;SDS011;21425;50.454;30.466;2023-12-22T02:40:53;18.60;;;7.57;;
35312;SDS011;21425;50.454;30.466;2023-12-22T02:43:20;25.52;;;8.48;;
35312;SDS011;21425;50.454;30.466;2023-12-22T02:45:49;17.45;;;7.88;;
35312;SDS011;21425;50.454;30.466;2023-12-22T02:48:15;16.63;;;8.00;;
35312;SDS011;21425;50.454;30.466;2023-12-22T02:50:42;22.35;;;9.00;;
35312;SDS011;21425;50.454;30.466;2023-12-22T02:53:08;15.27;;;7.53;;
35312;SDS011;21425;50.454;30.466;2023-12-22T02:55:33;18.10;;;8.23;;
35312;SDS011;21425;50.454;30.466;2023-12-22T02:57:59;19.08;;;8.02;;
35312;SDS011;21425;50.454;30.466;2023-12-22T03:00:25;18.52;;;7.80;;
35312;SDS011;21425;50.454;30.466;2023-12-22T03:02:51;16.70;;;8.23;;
35312;SDS011;21425;50.454;30.466;2023-12-22T03:05:17;16.75;;;8.13;;
35312;SDS011;21425;50.454;30.466;2023-12-22T03:07:43;15.07;;;7.55;;
35312;SDS011;21425;50.454;30.466;2023-12-22T03:10:09;17.50;;;7.63;;
35312;SDS011;21425;50.454;30.466;2023-12-22T03:12:34;18.38;;;8.05;;
35312;SDS011;21425;50.454;30.466;2023-12-22T03:15:00;19.77;;;7.55;;
35312;SDS011;21425;50.454;30.466;2023-12-22T03:17:26;21.08;;;8.80;;
35312;SDS011;21425;50.454;30.466;2023-12-22T03:19:52;18.13;;;7.68;;
35312;SDS011;21425;50.454;30.466;2023-12-22T03:22:17;19.10;;;7.85;;
35312;SDS011;21425;50.454;30.466;2023-12-22T03:24:43;24.42;;;8.57;;
35312;SDS011;21425;50.454;30.466;2023-12-22T03:27:09;28.73;;;8.93;;
35312;SDS011;21425;50.454;30.466;2023-12-22T03:29:35;22.27;;;8.57;;
35312;SDS011;21425;50.454;30.466;2023-12-22T03:32:01;27.42;;;10.13;;
35312;SDS011;21425;50.454;30.466;2023-12-22T03:34:26;21.60;;;9.20;;
35312;SDS011;21425;50.454;30.466;2023-12-22T03:36:52;17.88;;;8.52;;
35312;SDS011;21425;50.454;30.466;2023-12-22T03:39:18;17.90;;;8.60;;
35312;SDS011;21425;50.454;30.466;2023-12-22T03:41:44;17.55;;;7.78;;
35312;SDS011;21425;50.454;30.466;2023-12-22T03:44:10;17.27;;;7.68;;
35312;SDS011;21425;50.454;30.466;2023-12-22T03:46:36;19.70;;;8.60;;
35312;SDS011;21425;50.454;30.466;2023-12-22T03:49:01;17.42;;;8.32;;
35312;SDS011;21425;50.454;30.466;2023-12-22T03:51:27;20.40;;;8.35;;
35312;SDS011;21425;50.454;30.466;2023-12-22T03:53:53;20.83;;;7.70;;
35312;SDS011;21425;50.454;30.466;2023-12-22T03:56:19;18.67;;;8.52;;
35312;SDS011;21425;50.454;30.466;2023-12-22T03:58:44;18.23;;;8.02;;
35312;SDS011;21425;50.454;30.466;2023-12-22T04:01:13;18.25;;;8.07;;
35312;SDS011;21425;50.454;30.466;2023-12-22T04:03:40;15.98;;;8.20;;
35312;SDS011;21425;50.454;30.466;2023-12-22T04:06:06;21.05;;;8.13;;
35312;SDS011;21425;50.454;30.466;2023-12-22T04:08:31;16.98;;;7.68;;
35312;SDS011;21425;50.454;30.466;2023-12-22T04:10:57;16.38;;;8.23;;
35312;SDS011;21425;50.454;30.466;2023-12-22T04:13:23;15.50;;;7.95;;
35312;SDS011;21425;50.454;30.466;2023-12-22T04:15:49;19.73;;;9.20;;
35312;SDS011;21425;50.454;30.466;2023-12-22T04:18:15;18.88;;;8.75;;
35312;SDS011;21425;50.454;30.466;2023-12-22T04:20:41;20.83;;;8.05;;
35312;SDS011;21425;50.454;30.466;2023-12-22T04:23:06;22.67;;;9.27;;
35312;SDS011;21425;50.454;30.466;2023-12-22T04:25:32;27.45;;;10.85;;
35312;SDS011;21425;50.454;30.466;2023-12-22T04:27:58;32.90;;;10.90;;
35312;SDS011;21425;50.454;30.466;2023-12-22T04:30:23;28.70;;;11.10;;
35312;SDS011;21425;50.454;30.466;2023-12-22T04:32:51;17.95;;;9.35;;
35312;SDS011;21425;50.454;30.466;2023-12-22T04:35:17;23.85;;;10.95;;
35312;SDS011;21425;50.454;30.466;2023-12-22T04:37:43;22.02;;;10.23;;
35312;SDS011;21425;50.454;30.466;2023-12-22T04:40:09;21.23;;;10.05;;
35312;SDS011;21425;50.454;30.466;2023-12-22T04:42:35;21.42;;;9.93;;
35312;SDS011;21425;50.454;30.466;2023-12-22T04:45:01;23.98;;;10.15;;
35312;SDS011;21425;50.454;30.466;2023-12-22T04:47:27;22.25;;;10.70;;
35312;SDS011;21425;50.454;30.466;2023-12-22T04:49:52;22.25;;;9.13;;
35312;SDS011;21425;50.454;30.466;2023-12-22T04:52:18;19.42;;;9.13;;
35312;SDS011;21425;50.454;30.466;2023-12-22T04:54:44;20.35;;;9.27;;
35312;SDS011;21425;50.454;30.466;2023-12-22T04:57:09;19.23;;;9.02;;
35312;SDS011;21425;50.454;30.466;2023-12-22T04:59:35;20.05;;;8.85;;
35312;SDS011;21425;50.454;30.466;2023-12-22T05:02:00;22.98;;;9.73;;
35312;SDS011;21425;50.454;30.466;2023-12-22T05:04:26;18.63;;;9.02;;
35312;SDS011;21425;50.454;30.466;2023-12-22T05:06:52;22.40;;;10.50;;
35312;SDS011;21425;50.454;30.466;2023-12-22T05:09:18;22.08;;;8.85;;
35312;SDS011;21425;50.454;30.466;2023-12-22T05:11:43;24.60;;;10.27;;
35312;SDS011;21425;50.454;30.466;2023-12-22T05:14:09;21.52;;;9.93;;
35312;SDS011;21425;50.454;30.466;2023-12-22T05:16:36;18.15;;;8.40;;
35312;SDS011;21425;50.454;30.466;2023-12-22T05:19:02;20.92;;;9.57;;
35312;SDS011;21425;50.454;30.466;2023-12-22T05:21:27;20.50;;;8.98;;
35312;SDS011;21425;50.454;30.466;2023-12-22T05:23:53;21.70;;;9.77;;
35312;SDS011;21425;50.454;30.466;2023-12-22T05:26:20;19.05;;;8.43;;
35312;SDS011;21425;50.454;30.466;2023-12-22T05:28:46;24.63;;;10.73;;
35312;SDS011;21425;50.454;30.466;2023-12-22T05:31:12;21.73;;;9.13;;
35312;SDS011;21425;50.454;30.466;2023-12-22T05:33:38;21.52;;;9.18;;
35312;SDS011;21425;50.454;30.466;2023-12-22T05:36:04;31.30;;;11.60;;
35312;SDS011;21425;50.454;30.466;2023-12-22T05:38:30;22.13;;;10.50;;
35312;SDS011;21425;50.454;30.466;2023-12-22T05:40:56;21.83;;;9.75;;
35312;SDS011;21425;50.454;30.466;2023-12-22T05:43:22;29.10;;;10.93;;
35312;SDS011;21425;50.454;30.466;2023-12-22T05:45:48;27.15;;;11.80;;
35312;SDS011;21425;50.454;30.466;2023-12-22T05:48:13;24.80;;;10.88;;
35312;SDS011;21425;50.454;30.466;2023-12-22T05:50:39;28.58;;;9.75;;
35312;SDS011;21425;50.454;30.466;2023-12-22T05:53:05;26.63;;;11.05;;
35312;SDS011;21425;50.454;30.466;2023-12-22T05:55:30;24.52;;;10.32;;
35312;SDS011;21425;50.454;30.466;2023-12-22T05:57:56;24.70;;;10.55;;
35312;SDS011;21425;50.454;30.466;2023-12-22T06:00:22;21.75;;;9.98;;
35312;SDS011;21425;50.454;30.466;2023-12-22T06:02:48;25.45;;;10.95;;
35312;SDS011;21425;50.454;30.466;2023-12-22T06:05:14;23.98;;;10.93;;
35312;SDS011;21425;50.454;30.466;2023-12-22T06:07:40;27.75;;;12.30;;
35312;SDS011;21425;50.454;30.466;2023-12-22T06:10:07;21.42;;;10.43;;
35312;SDS011;21425;50.454;30.466;2023-12-22T06:12:34;30.30;;;10.60;;
35312;SDS011;21425;50.454;30.466;2023-12-22T06:15:00;26.75;;;11.10;;
35312;SDS011;21425;50.454;30.466;2023-12-22T06:17:26;23.85;;;10.65;;
35312;SDS011;21425;50.454;30.466;2023-12-22T06:19:52;27.65;;;10.77;;
35312;SDS011;21425;50.454;30.466;2023-12-22T06:22:18;29.38;;;10.43;;
35312;SDS011;21425;50.454;30.466;2023-12-22T06:24:44;20.27;;;10.80;;
35312;SDS011;21425;50.454;30.466;2023-12-22T06:27:10;26.40;;;10.98;;
35312;SDS011;21425;50.454;30.466;2023-12-22T06:29:35;21.77;;;10.20;;
35312;SDS011;21425;50.454;30.466;2023-12-22T06:32:01;32.97;;;11.60;;
35312;SDS011;21425;50.454;30.466;2023-12-22T06:34:28;30.83;;;10.73;;
35312;SDS011;21425;50.454;30.466;2023-12-22T06:36:54;31.35;;;12.93;;
35312;SDS011;21425;50.454;30.466;2023-12-22T06:39:19;29.73;;;12.18;;
35312;SDS011;21425;50.454;30.466;2023-12-22T06:41:45;25.83;;;11.23;;
35312;SDS011;21425;50.454;30.466;2023-12-22T06:44:10;27.75;;;10.93;;
35312;SDS011;21425;50.454;30.466;2023-12-22T06:46:36;21.23;;;10.30;;
35312;SDS011;21425;50.454;30.466;2023-12-22T06:49:02;24.23;;;10.63;;
35312;SDS011;21425;50.454;30.466;2023-12-22T06:51:30;23.40;;;10.55;;
35312;SDS011;21425;50.454;30.466;2023-12-22T06:53:56;28.02;;;10.65;;
35312;SDS011;21425;50.454;30.466;2023-12-22T06:56:23;30.27;;;11.98;;
35312;SDS011;21425;50.454;30.466;2023-12-22T06:58:53;28.17;;;11.10;;
35312;SDS011;21425;50.454;30.466;2023-12-22T07:01:24;26.48;;;11.57;;
35312;SDS011;21425;50.454;30.466;2023-12-22T07:03:51;24.75;;;11.75;;
35312;SDS011;21425;50.454;30.466;2023-12-22T07:06:17;33.03;;;13.55;;
35312;SDS011;21425;50.454;30.466;2023-12-22T07:08:44;33.08;;;12.65;;
35312;SDS011;21425;50.454;30.466;2023-12-22T07:11:19;29.45;;;12.23;;
35312;SDS011;21425;50.454;30.466;2023-12-22T07:13:45;35.45;;;13.73;;
35312;SDS011;21425;50.454;30.466;2023-12-22T07:16:11;27.58;;;11.93;;
35312;SDS011;21425;50.454;30.466;2023-12-22T07:18:38;31.38;;;12.93;;
35312;SDS011;21425;50.454;30.466;2023-12-22T07:21:04;33.90;;;14.05;;
35312;SDS011;21425;50.454;30.466;2023-12-22T07:23:30;30.30;;;12.35;;
35312;SDS011;21425;50.454;30.466;2023-12-22T07:25:55;30.75;;;12.90;;
35312;SDS011;21425;50.454;30.466;2023-12-22T07:28:21;29.45;;;12.48;;
35312;SDS011;21425;50.454;30.466;2023-12-22T07:30:47;22.80;;;11.63;;
35312;SDS011;21425;50.454;30.466;2023-12-22T07:33:12;27.05;;;13.13;;
35312;SDS011;21425;50.454;30.466;2023-12-22T07:35:38;27.73;;;11.88;;
35312;SDS011;21425;50.454;30.466;2023-12-22T07:38:04;22.23;;;11.23;;
35312;SDS011;21425;50.454;30.466;2023-12-22T07:40:29;29.90;;;12.50;;
35312;SDS011;21425;50.454;30.466;2023-12-22T07:42:55;30.60;;;11.60;;
35312;SDS011;21425;50.454;30.466;2023-12-22T07:45:21;31.85;;;12.85;;
35312;SDS011;21425;50.454;30.466;2023-12-22T07:47:47;29.75;;;12.75;;
35312;SDS011;21425;50.454;30.466;2023-12-22T07:50:13;32.75;;;14.15;;
35312;SDS011;21425;50.454;30.466;2023-12-22T07:52:39;37.22;;;14.13;;
35312;SDS011;21425;50.454;30.466;2023-12-22T07:55:06;32.75;;;13.45;;
35312;SDS011;21425;50.454;30.466;2023-12-22T07:57:33;36.25;;;15.63;;
35312;SDS011;21425;50.454;30.466;2023-12-22T07:59:58;35.15;;;14.35;;
35312;SDS011;21425;50.454;30.466;2023-12-22T08:02:24;28.25;;;12.52;;
35312;SDS011;21425;50.454;30.466;2023-12-22T08:04:50;31.08;;;12.52;;
35312;SDS011;21425;50.454;30.466;2023-12-22T08:07:16;30.05;;;14.02;;
35312;SDS011;21425;50.454;30.466;2023-12-22T08:09:42;29.10;;;12.80;;
35312;SDS011;21425;50.454;30.466;2023-12-22T08:12:07;34.80;;;13.30;;
35312;SDS011;21425;50.454;30.466;2023-12-22T08:14:33;32.00;;;15.35;;
35312;SDS011;21425;50.454;30.466;2023-12-22T08:16:59;31.15;;;13.63;;
35312;SDS011;21425;50.454;30.466;2023-12-22T08:19:25;32.53;;;15.70;;
35312;SDS011;21425;50.454;30.466;2023-12-22T08:21:54;31.17;;;12.43;;
35312;SDS011;21425;50.454;30.466;2023-12-22T08:24:20;29.08;;;12.10;;
35312;SDS011;21425;50.454;30.466;2023-12-22T08:26:46;25.95;;;11.93;;
35312;SDS011;21425;50.454;30.466;2023-12-22T08:29:13;24.65;;;12.30;;
35312;SDS011;21425;50.454;30.466;2023-12-22T08:31:40;28.20;;;11.85;;
35312;SDS011;21425;50.454;30.466;2023-12-22T08:34:05;29.27;;;13.13;;
35312;SDS011;21425;50.454;30.466;2023-12-22T08:36:31;26.48;;;12.50;;
35312;SDS011;21425;50.454;30.466;2023-12-22T08:38:57;28.48;;;12.20;;
35312;SDS011;21425;50.454;30.466;2023-12-22T08:41:23;30.75;;;11.23;;
35312;SDS011;21425;50.454;30.466;2023-12-22T08:43:49;24.67;;;11.02;;
35312;SDS011;21425;50.454;30.466;2023-12-22T08:46:15;26.88;;;11.63;;
35312;SDS011;21425;50.454;30.466;2023-12-22T08:48:41;24.50;;;11.13;;
35312;SDS011;21425;50.454;30.466;2023-12-22T08:51:08;26.23;;;11.88;;
35312;SDS011;21425;50.454;30.466;2023-12-22T08:53:34;29.30;;;11.50;;
35312;SDS011;21425;50.454;30.466;2023-12-22T08:56:02;29.05;;;10.90;;
35312;SDS011;21425;50.454;30.466;2023-12-22T08:58:29;25.77;;;11.05;;
35312;SDS011;21425;50.454;30.466;2023-12-22T09:00:55;24.38;;;10.90;;
35312;SDS011;21425;50.454;30.466;2023-12-22T09:03:21;19.63;;;10.02;;
35312;SDS011;21425;50.454;30.466;2023-12-22T09:05:47;29.60;;;11.75;;
35312;SDS011;21425;50.454;30.466;2023-12-22T09:08:12;26.90;;;12.95;;
35312;SDS011;21425;50.454;30.466;2023-12-22T09:10:38;24.80;;;11.32;;
35312;SDS011;21425;50.454;30.466;2023-12-22T09:13:04;24.15;;;11.43;;
35312;SDS011;21425;50.454;30.466;2023-12-22T09:15:29;25.65;;;11.15;;
35312;SDS011;21425;50.454;30.466;2023-12-22T09:17:55;27.27;;;11.07;;
35312;SDS011;21425;50.454;30.466;2023-12-22T09:20:21;29.00;;;12.65;;
35312;SDS011;21425;50.454;30.466;2023-12-22T09:22:47;22.70;;;10.95;;
35312;SDS011;21425;50.454;30.466;2023-12-22T09:25:13;24.50;;;11.70;;
35312;SDS011;21425;50.454;30.466;2023-12-22T09:27:39;25.35;;;11.70;;
35312;SDS011;21425;50.454;30.466;2023-12-22T09:30:05;27.45;;;12.43;;
35312;SDS011;21425;50.454;30.466;2023-12-22T09:32:34;28.65;;;13.60;;
35312;SDS011;21425;50.454;30.466;2023-12-22T09:35:00;28.05;;;11.48;;
35312;SDS011;21425;50.454;30.466;2023-12-22T09:37:26;32.72;;;12.27;;
35312;SDS011;21425;50.454;30.466;2023-12-22T09:39:52;29.73;;;13.25;;
35312;SDS011;21425;50.454;30.466;2023-12-22T09:42:19;30.58;;;12.68;;
35312;SDS011;21425;50.454;30.466;2023-12-22T09:44:46;29.42;;;12.05;;
35312;SDS011;21425;50.454;30.466;2023-12-22T09:47:14;29.58;;;13.02;;
35312;SDS011;21425;50.454;30.466;2023-12-22T09:49:43;35.95;;;12.35;;
35312;SDS011;21425;50.454;30.466;2023-12-22T09:52:11;28.55;;;12.75;;
35312;SDS011;21425;50.454;30.466;2023-12-22T09:54:38;33.33;;;13.65;;
35312;SDS011;21425;50.454;30.466;2023-12-22T09:57:05;39.30;;;14.07;;
35312;SDS011;21425;50.454;30.466;2023-12-22T09:59:31;34.45;;;13.60;;
35312;SDS011;21425;50.454;30.466;2023-12-22T10:01:58;28.55;;;13.15;;
35312;SDS011;21425;50.454;30.466;2023-12-22T10:04:25;27.80;;;12.30;;
35312;SDS011;21425;50.454;30.466;2023-12-22T10:06:51;25.25;;;11.05;;
35312;SDS011;21425;50.454;30.466;2023-12-22T10:09:22;29.05;;;12.20;;
35312;SDS011;21425;50.454;30.466;2023-12-22T10:11:49;29.30;;;11.70;;
35312;SDS011;21425;50.454;30.466;2023-12-22T10:14:17;25.65;;;10.90;;
35312;SDS011;21425;50.454;30.466;2023-12-22T10:16:50;24.17;;;11.98;;
35312;SDS011;21425;50.454;30.466;2023-12-22T10:19:17;28.05;;;11.88;;
35312;SDS011;21425;50.454;30.466;2023-12-22T10:21:43;31.70;;;12.40;;
35312;SDS011;21425;50.454;30.466;2023-12-22T10:24:26;31.75;;;12.60;;
35312;SDS011;21425;50.454;30.466;2023-12-22T10:27:12;27.40;;;12.60;;
35312;SDS011;21425;50.454;30.466;2023-12-22T10:29:39;31.95;;;13.68;;
35312;SDS011;21425;50.454;30.466;2023-12-22T10:32:05;27.75;;;13.07;;
35312;SDS011;21425;50.454;30.466;2023-12-22T10:34:32;35.25;;;14.15;;
35312;SDS011;21425;50.454;30.466;2023-12-22T10:37:00;38.03;;;14.52;;
35312;SDS011;21425;50.454;30.466;2023-12-22T10:39:27;27.80;;;13.60;;
35312;SDS011;21425;50.454;30.466;2023-12-22T10:41:54;36.97;;;14.77;;
35312;SDS011;21425;50.454;30.466;2023-12-22T10:44:20;31.42;;;13.48;;
35312;SDS011;21425;50.454;30.466;2023-12-22T10:46:48;31.10;;;14.63;;
35312;SDS011;21425;50.454;30.466;2023-12-22T10:49:14;37.78;;;16.35;;
35312;SDS011;21425;50.454;30.466;2023-12-22T10:51:40;33.42;;;15.65;;
35312;SDS011;21425;50.454;30.466;2023-12-22T10:54:07;29.73;;;14.70;;
35312;SDS011;21425;50.454;30.466;2023-12-22T10:56:33;30.65;;;15.85;;
35312;SDS011;21425;50.454;30.466;2023-12-22T10:58:59;33.95;;;15.32;;
35312;SDS011;21425;50.454;30.466;2023-12-22T11:01:29;36.22;;;17.20;;
35312;SDS011;21425;50.454;30.466;2023-12-22T11:03:56;33.25;;;15.55;;
35312;SDS011;21425;50.454;30.466;2023-12-22T11:06:23;36.10;;;15.77;;
35312;SDS011;21425;50.454;30.466;2023-12-22T11:08:52;30.85;;;14.75;;
35312;SDS011;21425;50.454;30.466;2023-12-22T11:11:20;34.65;;;16.20;;
35312;SDS011;21425;50.454;30.466;2023-12-22T11:13:54;37.70;;;16.02;;
35312;SDS011;21425;50.454;30.466;2023-12-22T11:16:22;42.47;;;16.70;;
35312;SDS011;21425;50.454;30.466;2023-12-22T11:18:49;39.63;;;15.93;;
35312;SDS011;21425;50.454;30.466;2023-12-22T11:21:19;33.67;;;15.45;;
35312;SDS011;21425;50.454;30.466;2023-12-22T11:23:47;36.15;;;15.07;;
35312;SDS011;21425;50.454;30.466;2023-12-22T11:26:16;31.67;;;15.23;;
35312;SDS011;21425;50.454;30.466;2023-12-22T11:28:43;29.88;;;14.05;;
35312;SDS011;21425;50.454;30.466;2023-12-22T11:31:10;33.60;;;15.38;;
35312;SDS011;21425;50.454;30.466;2023-12-22T11:33:36;32.33;;;15.02;;
35312;SDS011;21425;50.454;30.466;2023-12-22T11:36:04;29.63;;;14.38;;
35312;SDS011;21425;50.454;30.466;2023-12-22T11:38:30;33.10;;;16.17;;
35312;SDS011;21425;50.454;30.466;2023-12-22T11:40:56;37.80;;;16.80;;
35312;SDS011;21425;50.454;30.466;2023-12-22T11:43:25;39.65;;;18.15;;
35312;SDS011;21425;50.454;30.466;2023-12-22T11:45:51;43.83;;;20.15;;
35312;SDS011;21425;50.454;30.466;2023-12-22T11:48:17;43.70;;;19.30;;
35312;SDS011;21425;50.454;30.466;2023-12-22T11:50:43;39.03;;;19.00;;
35312;SDS011;21425;50.454;30.466;2023-12-22T11:56:01;39.47;;;16.73;;
35312;SDS011;21425;50.454;30.466;2023-12-22T11:58:48;50.80;;;20.63;;
35312;SDS011;21425;50.454;30.466;2023-12-22T12:01:23;48.88;;;17.80;;
35312;SDS011;21425;50.454;30.466;2023-12-22T12:03:51;49.38;;;18.17;;
35312;SDS011;21425;50.454;30.466;2023-12-22T12:08:53;45.72;;;18.20;;
35312;SDS011;21425;50.454;30.466;2023-12-22T12:11:20;36.50;;;15.40;;
35312;SDS011;21425;50.454;30.466;2023-12-22T12:13:47;46.33;;;18.77;;
35312;SDS011;21425;50.454;30.466;2023-12-22T12:16:13;39.03;;;15.65;;
35312;SDS011;21425;50.454;30.466;2023-12-22T12:18:40;42.55;;;18.35;;
35312;SDS011;21425;50.454;30.466;2023-12-22T12:21:06;46.08;;;17.45;;
35312;SDS011;21425;50.454;30.466;2023-12-22T12:23:33;42.88;;;19.17;;
35312;SDS011;21425;50.454;30.466;2023-12-22T12:25:59;47.63;;;20.83;;
35312;SDS011;21425;50.454;30.466;2023-12-22T12:28:26;52.20;;;19.77;;
35312;SDS011;21425;50.454;30.466;2023-12-22T12:30:57;41.45;;;18.40;;
35312;SDS011;21425;50.454;30.466;2023-12-22T12:33:27;43.67;;;19.20;;
35312;SDS011;21425;50.454;30.466;2023-12-22T12:35:54;48.45;;;19.83;;
35312;SDS011;21425;50.454;30.466;2023-12-22T12:38:23;42.67;;;17.65;;
35312;SDS011;21425;50.454;30.466;2023-12-22T12:41:07;39.00;;;17.55;;
35312;SDS011;21425;50.454;30.466;2023-12-22T12:43:35;40.22;;;17.50;;
35312;SDS011;21425;50.454;30.466;2023-12-22T12:46:05;39.65;;;16.42;;
35312;SDS011;21425;50.454;30.466;2023-12-22T12:48:31;40.70;;;17.33;;
35312;SDS011;21425;50.454;30.466;2023-12-22T12:51:06;30.08;;;14.40;;
35312;SDS011;21425;50.454;30.466;2023-12-22T12:53:32;32.33;;;15.68;;
35312;SDS011;21425;50.454;30.466;2023-12-22T12:55:58;31.17;;;13.73;;
35312;SDS011;21425;50.454;30.466;2023-12-22T12:58:28;33.85;;;16.65;;
35312;SDS011;21425;50.454;30.466;2023-12-22T13:01:04;33.47;;;16.35;;
35312;SDS011;21425;50.454;30.466;2023-12-22T13:03:30;35.63;;;18.20;;
35312;SDS011;21425;50.454;30.466;2023-12-22T13:06:08;36.17;;;16.48;;
35312;SDS011;21425;50.454;30.466;2023-12-22T13:08:34;39.72;;;15.68;;
35312;SDS011;21425;50.454;30.466;2023-12-22T13:11:00;34.33;;;16.00;;
35312;SDS011;21425;50.454;30.466;2023-12-22T13:13:26;37.63;;;17.25;;
35312;SDS011;21425;50.454;30.466;2023-12-22T13:15:52;31.45;;;15.63;;
35312;SDS011;21425;50.454;30.466;2023-12-22T13:18:18;35.13;;;16.23;;
35312;SDS011;21425;50.454;30.466;2023-12-22T13:20:43;36.55;;;16.58;;
35312;SDS011;21425;50.454;30.466;2023-12-22T13:23:10;35.80;;;17.60;;
35312;SDS011;21425;50.454;30.466;2023-12-22T13:25:39;38.75;;;15.65;;
35312;SDS011;21425;50.454;30.466;2023-12-22T13:28:05;36.63;;;15.20;;
35312;SDS011;21425;50.454;30.466;2023-12-22T13:30:37;44.03;;;17.65;;
35312;SDS011;21425;50.454;30.466;2023-12-22T13:33:06;39.47;;;18.42;;
35312;SDS011;21425;50.454;30.466;2023-12-22T13:35:33;41.08;;;20.15;;
35312;SDS011;21425;50.454;30.466;2023-12-22T13:38:01;41.80;;;16.73;;
35312;SDS011;21425;50.454;30.466;2023-12-22T13:40:36;47.78;;;18.70;;
35312;SDS011;21425;50.454;30.466;2023-12-22T13:43:03;46.60;;;20.48;;
35312;SDS011;21425;50.454;30.466;2023-12-22T13:45:32;41.13;;;20.58;;
35312;SDS011;21425;50.454;30.466;2023-12-22T13:47:58;45.13;;;20.27;;
35312;SDS011;21425;50.454;30.466;2023-12-22T13:50:24;45.20;;;18.88;;
35312;SDS011;21425;50.454;30.466;2023-12-22T13:52:50;47.53;;;20.35;;
35312;SDS011;21425;50.454;30.466;2023-12-22T13:55:17;38.28;;;18.60;;
35312;SDS011;21425;50.454;30.466;2023-12-22T13:57:44;46.28;;;20.15;;
35312;SDS011;21425;50.454;30.466;2023-12-22T14:02:47;46.15;;;20.27;;
35312;SDS011;21425;50.454;30.466;2023-12-22T14:05:19;52.55;;;20.40;;
35312;SDS011;21425;50.454;30.466;2023-12-22T14:07:46;47.45;;;21.30;;
35312;SDS011;21425;50.454;30.466;2023-12-22T14:10:12;46.28;;;19.20;;
35312;SDS011;21425;50.454;30.466;2023-12-22T14:12:38;49.92;;;22.15;;
35312;SDS011;21425;50.454;30.466;2023-12-22T14:15:07;50.63;;;20.85;;
35312;SDS011;21425;50.454;30.466;2023-12-22T14:17:33;52.25;;;21.42;;
35312;SDS011;21425;50.454;30.466;2023-12-22T14:19:59;48.35;;;22.25;;